Riceland, Ohio
Current Conditions -  °F | °C
As of 8:38 AM on Tuesday 21 Oct 2014 (Local Time) from KBJJ Reporting Station
Overcast Overcast  
Wind Chill: 51°   Ceiling: 1500
Heat Index: 51°   Visibility: 8mi
Dew Point: 47°   Wind: 9mph
Humidity: 86%   Direction: 330°NNW
Pressure: 29.91"   Gusts: NA
Location:  40.8369°N, 81.7632°W
Report Text: KBJJ 211238Z AUTO 33008KT 8SM SCT010 OVC015 11/08 A2991 RMK AO2 T01060083 TSNO
Loading
Personal Weather Stations






























Interactive Weather Map
Tropical Storm Tracking
New forecast layout! Learn more

10-Day Weather Forecast

Advertisements
Track Severe Weather on mobile